Time;durP1;ratioP1;P1;durP2;ratioP2;P2;SDS_P1;SDS_P2;PMS_P1;PMS_P2;Temp;Humidity;BMP_temperature;BMP_pressure;BME280_temperature;BME280_humidity;BME280_pressure;Samples;Min_cycle;Max_cycle;Signal;HPM_P1;HPM_P2
2023/11/18 00:01:46;;;;;;;38.40;19.80;;;;;;;7.93;58.26;100298.42;108300;1256;70283;-66
2023/11/18 00:04:15;;;;;;;44.20;21.80;;;;;;;8.03;58.10;100300.13;108283;1251;73189;-67
2023/11/18 00:06:43;;;;;;;37.50;20.60;;;;;;;7.45;59.27;100302.25;108315;1251;60270;-65
2023/11/18 00:09:14;;;;;;;40.40;21.70;;;;;;;6.58;62.14;100305.75;108179;1251;60007;-67
2023/11/18 00:11:42;;;;;;;38.50;19.90;;;;;;;6.43;62.72;100304.27;108230;1251;73809;-66
2023/11/18 00:14:11;;;;;;;41.00;20.00;;;;;;;6.37;63.09;100306.81;108322;1257;70222;-66
2023/11/18 00:16:38;;;;;;;40.20;19.70;;;;;;;6.37;63.17;100305.94;108253;1254;71424;-68
2023/11/18 00:19:09;;;;;;;45.30;21.40;;;;;;;6.31;63.55;100308.13;108153;1253;60181;-67
2023/11/18 00:21:36;;;;;;;42.60;21.20;;;;;;;6.28;63.57;100306.27;108215;1254;60402;-67
2023/11/18 00:24:05;;;;;;;39.70;20.40;;;;;;;6.27;63.61;100306.60;108177;1256;73956;-67
2023/11/18 00:26:32;;;;;;;43.70;21.80;;;;;;;6.34;63.80;100305.61;108190;1255;68701;-67
2023/11/18 00:29:00;;;;;;;49.10;21.50;;;;;;;6.30;63.83;100306.75;108214;1254;72636;-66
2023/11/18 00:31:29;;;;;;;41.60;21.80;;;;;;;6.31;63.85;100305.00;108346;1254;59824;-67
2023/11/18 00:33:57;;;;;;;38.40;19.60;;;;;;;6.28;64.09;100305.90;108168;1254;60357;-66
2023/11/18 00:36:24;;;;;;;40.80;21.00;;;;;;;6.27;64.18;100306.11;108212;1257;73778;-67
2023/11/18 00:38:52;;;;;;;42.40;20.30;;;;;;;6.33;63.98;100308.11;108149;1258;68720;-67
2023/11/18 00:41:19;;;;;;;37.70;20.10;;;;;;;6.31;64.17;100309.69;108172;1257;71401;-67
2023/11/18 00:43:47;;;;;;;38.40;21.80;;;;;;;6.26;64.45;100306.65;108171;1254;60250;-67
2023/11/18 00:46:14;;;;;;;36.80;19.50;;;;;;;6.49;63.69;100305.88;108138;1253;60431;-66
2023/11/18 00:48:42;;;;;;;43.90;22.80;;;;;;;6.63;63.32;100301.47;108218;1256;72682;-66
2023/11/18 00:51:09;;;;;;;43.00;21.50;;;;;;;6.89;62.61;100300.29;108125;1254;70086;-67
2023/11/18 00:53:37;;;;;;;43.10;21.10;;;;;;;7.06;61.95;100298.92;108159;1255;72704;-67
2023/11/18 00:56:07;;;;;;;43.20;20.60;;;;;;;7.04;62.01;100296.34;108192;1256;60434;-67
2023/11/18 00:58:39;;;;;;;38.60;20.30;;;;;;;7.13;61.71;100297.73;108235;1254;60207;-68
2023/11/18 01:01:07;;;;;;;41.30;21.00;;;;;;;7.15;61.57;100291.92;108268;1257;74233;-67
2023/11/18 01:03:35;;;;;;;43.20;22.20;;;;;;;7.16;61.53;100289.80;108238;1255;70297;-65
2023/11/18 01:06:06;;;;;;;36.40;19.70;;;;;;;7.19;61.41;100286.77;108154;1255;73350;-66
2023/11/18 01:08:33;;;;;;;40.20;20.30;;;;;;;7.25;61.19;100286.30;108183;1254;60906;-65
2023/11/18 01:11:00;;;;;;;37.80;21.00;;;;;;;7.35;60.94;100287.33;108283;1258;59254;-67
2023/11/18 01:13:28;;;;;;;38.20;19.80;;;;;;;7.47;60.57;100287.06;108327;1254;71848;-66
2023/11/18 01:15:55;;;;;;;40.40;21.30;;;;;;;7.51;60.50;100286.96;108167;1255;70292;-67
2023/11/18 01:18:23;;;;;;;38.40;20.40;;;;;;;7.53;60.26;100282.91;108237;1251;72704;-67
2023/11/18 01:20:51;;;;;;;46.80;22.00;;;;;;;7.53;60.36;100282.72;108297;1252;60370;-66
2023/11/18 01:23:18;;;;;;;41.10;21.60;;;;;;;7.49;60.45;100282.29;108175;1254;60277;-66
2023/11/18 01:25:46;;;;;;;37.50;19.70;;;;;;;7.45;60.68;100279.40;108291;1252;73752;-67
2023/11/18 01:28:15;;;;;;;39.60;20.60;;;;;;;7.51;60.59;100282.44;108353;1254;69638;-67
2023/11/18 01:30:44;;;;;;;38.20;19.40;;;;;;;7.61;60.20;100278.35;108178;1254;72392;-66
2023/11/18 01:33:14;;;;;;;41.50;20.30;;;;;;;7.63;60.05;100280.23;108218;1253;60941;-67
2023/11/18 01:35:43;;;;;;;31.80;16.10;;;;;;;7.63;60.14;100278.14;108292;1255;60286;-67
2023/11/18 01:38:11;;;;;;;37.00;19.50;;;;;;;7.62;60.17;100282.70;108312;1255;73830;-67
2023/11/18 01:40:39;;;;;;;39.30;22.10;;;;;;;7.68;60.14;100285.36;108249;1254;70522;-67
2023/11/18 01:43:12;;;;;;;42.10;20.40;;;;;;;7.74;59.79;100285.23;108238;1254;71367;-67
2023/11/18 01:45:40;;;;;;;46.30;21.10;;;;;;;7.76;59.76;100287.45;108193;1254;60487;-67
2023/11/18 01:48:11;;;;;;;37.70;19.00;;;;;;;7.74;59.80;100286.97;108188;1254;60410;-66
2023/11/18 01:50:40;;;;;;;43.60;20.10;;;;;;;7.69;59.85;100287.45;108209;1254;72643;-67
2023/11/18 01:53:09;;;;;;;42.70;21.50;;;;;;;7.57;60.20;100288.77;108413;1256;70209;-67
2023/11/18 01:55:38;;;;;;;42.00;20.70;;;;;;;7.41;60.62;100291.38;108177;1254;72767;-66
2023/11/18 01:58:10;;;;;;;39.60;19.40;;;;;;;7.07;61.71;100291.36;108181;1253;60527;-67
2023/11/18 02:00:38;;;;;;;42.50;21.10;;;;;;;7.56;60.32;100294.03;108240;1253;60293;-67
2023/11/18 02:03:05;;;;;;;37.50;19.60;;;;;;;7.65;59.96;100291.36;108105;1254;73842;-67
2023/11/18 02:05:34;;;;;;;41.20;20.90;;;;;;;7.82;59.53;100299.91;108207;1257;69172;-66
2023/11/18 02:08:04;;;;;;;51.20;22.80;;;;;;;7.87;59.22;100296.13;108036;1255;71492;-67
2023/11/18 02:10:32;;;;;;;40.70;21.60;;;;;;;7.72;59.44;100298.73;108068;1253;60895;-66
2023/11/18 02:13:27;;;;;;;43.50;22.60;;;;;;;7.72;59.34;100302.23;108066;1254;60421;-67
2023/11/18 02:15:57;;;;;;;50.30;24.60;;;;;;;7.54;59.68;100297.55;108259;1254;72774;-67
2023/11/18 02:18:25;;;;;;;48.70;22.60;;;;;;;7.56;59.51;100298.56;108259;1254;70850;-67
2023/11/18 02:20:57;;;;;;;45.40;22.10;;;;;;;7.59;59.51;100294.31;108132;1256;72680;-70
2023/11/18 02:23:27;;;;;;;;;;;;;;;7.66;59.30;100294.67;108134;1254;60892;-66
2023/11/18 02:25:58;;;;;;;47.90;23.40;;;;;;;7.70;59.02;100302.27;108046;1254;60290;-67
2023/11/18 02:28:25;;;;;;;52.90;24.20;;;;;;;7.78;58.93;100300.87;108155;1253;73897;-67
2023/11/18 02:30:56;;;;;;;41.70;20.70;;;;;;;7.70;59.00;100304.90;108142;1256;69032;-67
2023/11/18 02:33:33;;;;;;;46.30;22.30;;;;;;;7.84;58.71;100300.02;108150;1254;70359;-67
2023/11/18 02:36:09;;;;;;;41.70;20.80;;;;;;;7.84;58.58;100298.63;108130;1253;60924;-67
2023/11/18 02:38:40;;;;;;;38.90;19.30;;;;;;;7.83;58.84;100302.52;108229;1254;60255;-66
2023/11/18 02:41:10;;;;;;;42.50;21.80;;;;;;;7.81;58.77;100303.59;108350;1254;73880;-67
2023/11/18 02:43:38;;;;;;;37.30;20.00;;;;;;;7.88;58.49;100303.80;108175;1257;70720;-66
2023/11/18 02:46:12;;;;;;;41.80;23.60;;;;;;;8.01;58.30;100300.34;108044;1254;72557;-66
2023/11/18 02:48:41;;;;;;;38.50;21.10;;;;;;;8.09;58.04;100302.93;108101;1253;60852;-66
2023/11/18 02:51:11;;;;;;;38.40;20.90;;;;;;;8.10;57.87;100305.54;108056;1253;60284;-66
2023/11/18 02:53:41;;;;;;;38.80;19.80;;;;;;;8.05;58.03;100303.04;108157;1253;73821;-67
2023/11/18 02:56:08;;;;;;;43.60;20.80;;;;;;;7.91;58.02;100302.31;108148;1254;70382;-66
2023/11/18 02:58:36;;;;;;;39.90;20.50;;;;;;;7.96;57.88;100304.12;108246;1254;71545;-66
2023/11/18 03:01:04;;;;;;;42.30;22.20;;;;;;;8.02;57.90;100299.44;108244;1251;60293;-66
2023/11/18 03:03:32;;;;;;;41.30;20.30;;;;;;;7.96;57.98;100301.50;108152;1251;60425;-67
2023/11/18 03:06:00;;;;;;;45.70;24.10;;;;;;;7.91;58.18;100300.58;108147;1251;72675;-67
2023/11/18 03:08:29;;;;;;;46.30;23.20;;;;;;;7.76;58.39;100304.08;108156;1251;71140;-67
2023/11/18 03:10:58;;;;;;;41.00;21.70;;;;;;;7.84;58.25;100300.56;108233;1257;72329;-67
2023/11/18 03:13:26;;;;;;;42.20;20.50;;;;;;;7.78;58.42;100306.45;108240;1254;59599;-65
2023/11/18 03:15:53;;;;;;;42.90;21.60;;;;;;;7.88;58.19;100307.98;108235;1251;60581;-66
2023/11/18 03:18:21;;;;;;;42.40;20.40;;;;;;;7.76;58.37;100310.17;108182;1251;72574;-67
2023/11/18 03:20:49;;;;;;;40.30;21.20;;;;;;;7.73;58.53;100312.15;108231;1251;70282;-69
2023/11/18 03:23:16;;;;;;;48.80;23.20;;;;;;;7.68;58.53;100315.95;108328;1251;71968;-67
2023/11/18 03:25:44;;;;;;;45.70;22.20;;;;;;;7.82;58.08;100314.05;108228;1257;60424;-67
2023/11/18 03:28:12;;;;;;;43.10;21.40;;;;;;;7.88;57.90;100315.85;108274;1251;60101;-67
2023/11/18 03:30:39;;;;;;;40.10;20.10;;;;;;;7.85;57.93;100312.26;108224;1251;73073;-67
2023/11/18 03:33:10;;;;;;;45.60;21.70;;;;;;;7.91;57.82;100312.65;108233;1251;70611;-67
2023/11/18 03:35:38;;;;;;;39.50;20.20;;;;;;;7.89;57.87;100310.77;108215;1254;71817;-67
2023/11/18 03:38:06;;;;;;;46.70;21.50;;;;;;;7.88;57.70;100310.96;108243;1251;59739;-67
2023/11/18 03:40:35;;;;;;;35.90;20.50;;;;;;;7.97;57.42;100309.54;108145;1251;60839;-66
2023/11/18 03:43:03;;;;;;;38.10;20.80;;;;;;;8.06;57.10;100306.16;108208;1251;72675;-67
2023/11/18 03:45:30;;;;;;;41.80;21.60;;;;;;;8.00;57.13;100304.02;108180;1251;69411;-66
2023/11/18 03:47:57;;;;;;;43.30;21.80;;;;;;;8.03;57.16;100302.05;108250;1251;71473;-67
2023/11/18 03:50:25;;;;;;;41.30;22.20;;;;;;;7.80;57.61;100303.11;108257;1251;60965;-66
2023/11/18 03:52:52;;;;;;;43.80;22.50;;;;;;;7.65;58.12;100303.09;108149;1251;60922;-66
2023/11/18 03:55:20;;;;;;;45.10;20.80;;;;;;;7.67;58.08;100306.70;108155;1251;72671;-66
2023/11/18 03:57:47;;;;;;;44.50;22.20;;;;;;;7.56;58.28;100308.70;108194;1251;70145;-66
2023/11/18 04:00:16;;;;;;;39.10;21.50;;;;;;;7.56;58.30;100309.91;108201;1254;72795;-66
2023/11/18 04:02:45;;;;;;;45.70;22.30;;;;;;;7.58;58.20;100309.02;108225;1251;60842;-66
2023/11/18 04:05:13;;;;;;;40.30;22.20;;;;;;;7.56;58.31;100308.34;108215;1251;60127;-67
2023/11/18 04:07:41;;;;;;;42.70;21.70;;;;;;;7.51;58.28;100310.73;108250;1256;73847;-67
2023/11/18 04:10:10;;;;;;;42.70;23.50;;;;;;;7.30;58.88;100319.37;108147;1251;69089;-66
2023/11/18 04:12:38;;;;;;;44.40;23.50;;;;;;;7.28;58.89;100321.50;108289;1251;71411;-67
2023/11/18 04:15:07;;;;;;;50.50;25.80;;;;;;;7.28;58.84;100323.09;108276;1254;60281;-67
2023/11/18 04:17:35;;;;;;;48.40;24.20;;;;;;;7.28;58.88;100324.30;108314;1251;60626;-67
2023/11/18 04:20:11;;;;;;;53.00;26.10;;;;;;;7.33;58.72;100328.73;108321;1251;73884;-67
2023/11/18 04:22:42;;;;;;;51.50;25.10;;;;;;;7.31;58.76;100338.02;108295;1251;68955;-67
2023/11/18 04:25:10;;;;;;;45.90;24.30;;;;;;;7.26;58.93;100341.30;108107;1253;71891;-67
2023/11/18 04:27:38;;;;;;;47.90;25.00;;;;;;;7.18;59.14;100340.93;108087;1259;60791;-67
2023/11/18 04:30:08;;;;;;;45.40;24.50;;;;;;;7.18;59.30;100344.60;108177;1252;59990;-67
2023/11/18 04:32:36;;;;;;;44.50;23.40;;;;;;;7.29;58.98;100343.49;108228;1254;73138;-66
2023/11/18 04:35:06;;;;;;;46.70;23.10;;;;;;;7.20;59.03;100346.80;108057;1254;70524;-67
2023/11/18 04:37:34;;;;;;;48.40;23.60;;;;;;;7.03;59.45;100352.39;108081;1254;72644;-68
2023/11/18 04:40:03;;;;;;;49.40;24.70;;;;;;;7.09;59.09;100351.91;108119;1252;60329;-66
2023/11/18 04:42:31;;;;;;;45.50;24.40;;;;;;;7.09;59.24;100353.85;108140;1256;60515;-68
2023/11/18 04:44:59;;;;;;;47.20;23.80;;;;;;;7.14;59.11;100349.91;108224;1253;73789;-67
2023/11/18 04:47:26;;;;;;;51.50;26.80;;;;;;;7.20;59.14;100354.51;108029;1254;70100;-67
2023/11/18 04:49:54;;;;;;;45.40;24.30;;;;;;;7.14;59.17;100358.80;108150;1254;71501;-67
2023/11/18 04:52:22;;;;;;;49.30;25.00;;;;;;;7.26;59.03;100363.30;108113;1252;60418;-67
2023/11/18 04:54:49;;;;;;;48.00;25.30;;;;;;;7.21;59.06;100361.98;108165;1252;60322;-67
2023/11/18 04:57:16;;;;;;;49.80;25.90;;;;;;;7.35;58.77;100365.57;108126;1253;72595;-67
2023/11/18 04:59:44;;;;;;;44.50;24.70;;;;;;;7.30;58.79;100363.56;108141;1254;70471;-68
2023/11/18 05:02:11;;;;;;;53.90;26.80;;;;;;;7.34;58.64;100370.48;108153;1253;71764;-67
2023/11/18 05:04:40;;;;;;;51.90;26.80;;;;;;;7.49;58.32;100369.29;108159;1254;60803;-67
2023/11/18 05:07:08;;;;;;;46.60;24.80;;;;;;;7.57;58.10;100373.33;108184;1253;60377;-68
2023/11/18 05:09:37;;;;;;;52.00;25.90;;;;;;;7.63;57.76;100370.74;108166;1254;73775;-67
2023/11/18 05:12:06;;;;;;;51.00;25.70;;;;;;;7.70;57.79;100368.15;108212;1254;69078;-67
2023/11/18 05:14:34;;;;;;;41.60;22.50;;;;;;;7.67;57.50;100371.01;108201;1253;71610;-67
2023/11/18 05:17:04;;;;;;;47.80;24.40;;;;;;;7.65;57.38;100374.55;108148;1253;60402;-67
2023/11/18 05:19:32;;;;;;;46.30;24.80;;;;;;;7.69;57.18;100376.58;108213;1253;59977;-67
2023/11/18 05:22:00;;;;;;;40.80;22.80;;;;;;;7.61;57.25;100383.54;108142;1253;74301;-67
2023/11/18 05:24:27;;;;;;;37.40;20.20;;;;;;;7.61;57.24;100387.74;108151;1256;70291;-67
2023/11/18 05:26:55;;;;;;;43.60;23.50;;;;;;;7.41;57.34;100389.55;108217;1254;71380;-68
2023/11/18 05:29:23;;;;;;;44.70;23.20;;;;;;;7.28;57.53;100388.56;108173;1254;60354;-67
2023/11/18 05:31:51;;;;;;;44.20;24.30;;;;;;;7.44;57.25;100390.90;108207;1254;60306;-66
2023/11/18 05:34:20;;;;;;;45.60;23.60;;;;;;;7.39;57.42;100393.08;108181;1253;72567;-66
2023/11/18 05:36:48;;;;;;;41.10;21.20;;;;;;;7.54;57.09;100401.67;108180;1254;69340;-67
2023/11/18 05:39:16;;;;;;;45.50;23.70;;;;;;;7.44;56.89;100407.65;107998;1254;191873;-66
2023/11/18 05:43:16;;;;;;;36.70;21.20;;;;;;;5.58;62.54;100417.44;104900;1291;600237;-67
2023/11/18 05:46:14;;;;;;;40.20;21.70;;;;;;;5.62;61.82;100420.80;107313;1263;58874;-67
2023/11/18 05:48:32;;;;;;;42.70;22.80;;;;;;;6.48;59.43;100418.60;107282;1263;60016;-67
2023/11/18 05:50:59;;;;;;;43.70;22.60;;;;;;;6.76;58.55;100423.91;107392;1263;72280;-67
2023/11/18 05:53:27;;;;;;;40.10;22.60;;;;;;;6.87;58.28;100424.23;107337;1263;68873;-66
2023/11/18 05:56:00;;;;;;;43.50;23.00;;;;;;;6.83;58.51;100433.56;107252;1262;133553;-67
2023/11/18 05:58:28;;;;;;;35.10;20.70;;;;;;;6.91;58.06;100431.85;107412;1263;60826;-67
2023/11/18 06:00:55;;;;;;;36.70;22.00;;;;;;;6.74;58.19;100433.55;108256;1251;59068;-67
2023/11/18 06:03:23;;;;;;;46.10;22.00;;;;;;;6.78;58.26;100439.06;108274;1251;71845;-67
2023/11/18 06:05:51;;;;;;;49.20;23.30;;;;;;;6.77;58.26;100438.90;108242;1251;70133;-67
2023/11/18 06:08:19;;;;;;;46.20;22.70;;;;;;;6.69;58.67;100444.44;108165;1252;72623;-67
2023/11/18 06:10:48;;;;;;;38.50;21.10;;;;;;;6.61;58.53;100446.83;108234;1252;61006;-67
2023/11/18 06:13:16;;;;;;;46.80;25.30;;;;;;;6.53;58.69;100453.23;108153;1251;60153;-67
2023/11/18 06:15:44;;;;;;;40.60;23.10;;;;;;;6.65;58.53;100454.44;108206;1251;71852;-67
2023/11/18 06:18:11;;;;;;;35.60;20.70;;;;;;;6.69;58.39;100461.52;108239;1254;69954;-67
2023/11/18 06:20:39;;;;;;;40.00;20.60;;;;;;;6.74;58.12;100457.44;108225;1252;72699;-65
2023/11/18 06:23:06;;;;;;;37.30;20.90;;;;;;;6.91;58.02;100454.02;108213;1251;60841;-66
2023/11/18 06:25:35;;;;;;;54.40;27.40;;;;;;;7.11;57.34;100459.44;108237;1251;59351;-66
2023/11/18 06:28:03;;;;;;;44.00;23.60;;;;;;;7.19;57.30;100455.27;108294;1251;73512;-66
2023/11/18 06:30:31;;;;;;;46.90;25.50;;;;;;;7.11;57.31;100455.06;108185;1251;70315;-66
2023/11/18 06:32:58;;;;;;;39.40;20.80;;;;;;;7.04;57.60;100450.31;108245;1252;72729;-66
2023/11/18 06:35:26;;;;;;;44.00;21.80;;;;;;;6.92;58.09;100453.31;108239;1251;60895;-67
2023/11/18 06:37:54;;;;;;;44.10;23.70;;;;;;;7.03;57.48;100452.07;108130;1251;61017;-67
2023/11/18 06:40:21;;;;;;;51.80;28.50;;;;;;;7.07;57.30;100457.41;108263;1251;71961;-66
2023/11/18 06:42:50;;;;;;;44.10;22.70;;;;;;;7.14;57.33;100461.84;108245;1251;69060;-66
2023/11/18 06:45:17;;;;;;;42.10;22.30;;;;;;;7.14;57.10;100462.87;108200;1253;71273;-66
2023/11/18 06:47:45;;;;;;;39.10;21.40;;;;;;;7.21;56.82;100463.10;108221;1252;59757;-66
2023/11/18 06:50:14;;;;;;;36.20;20.50;;;;;;;7.20;56.81;100465.74;108185;1251;59436;-67
2023/11/18 06:52:42;;;;;;;33.10;18.40;;;;;;;7.16;56.84;100467.02;108244;1251;71500;-66
2023/11/18 06:55:13;;;;;;;;;;;;;;;7.15;56.32;100467.40;108262;1251;69263;-66
2023/11/18 06:57:43;;;;;;;31.60;18.10;;;;;;;7.23;56.20;100465.34;108187;1251;72879;-66
2023/11/18 07:00:14;;;;;;;33.40;18.80;;;;;;;7.22;56.01;100469.02;108075;1251;60016;-66
2023/11/18 07:02:41;;;;;;;36.30;20.40;;;;;;;7.29;56.13;100471.17;108041;1259;59965;-66
2023/11/18 07:05:09;;;;;;;41.00;21.80;;;;;;;7.29;56.02;100473.27;108247;1251;71973;-66
2023/11/18 07:07:37;;;;;;;37.90;21.20;;;;;;;7.35;55.99;100478.23;108301;1256;70085;-66
2023/11/18 07:10:05;;;;;;;37.20;22.70;;;;;;;7.34;55.84;100474.59;108260;1251;72643;-66
2023/11/18 07:12:38;;;;;;;34.20;18.90;;;;;;;7.26;56.18;100474.89;108306;1253;61001;-66
2023/11/18 07:15:06;;;;;;;47.80;20.10;;;;;;;7.16;56.10;100476.80;108252;1251;59490;-67
2023/11/18 07:17:34;;;;;;;41.20;20.10;;;;;;;7.32;56.03;100472.33;108271;1251;73066;-66
2023/11/18 07:20:03;;;;;;;43.70;21.00;;;;;;;7.33;55.99;100473.52;108207;1253;69020;-66
2023/11/18 07:22:31;;;;;;;38.70;19.40;;;;;;;7.40;55.62;100476.91;108244;1252;71564;-66
2023/11/18 07:24:58;;;;;;;37.70;19.40;;;;;;;7.33;55.28;100480.70;108231;1253;59762;-66
2023/11/18 07:27:28;;;;;;;46.80;21.30;;;;;;;7.43;55.13;100481.75;108209;1251;60363;-67
2023/11/18 07:29:57;;;;;;;38.90;20.60;;;;;;;7.48;54.86;100484.10;108335;1253;73006;-67
2023/11/18 07:32:25;;;;;;;57.40;21.80;;;;;;;7.49;54.31;100482.85;108186;1251;69204;-67
2023/11/18 07:34:55;;;;;;;49.80;19.50;;;;;;;7.37;54.07;100482.56;108274;1252;70459;-66
2023/11/18 07:37:23;;;;;;;37.60;16.70;;;;;;;7.34;54.02;100485.04;108259;1251;60816;-66
2023/11/18 07:39:50;;;;;;;36.10;18.50;;;;;;;7.43;53.95;100487.16;108237;1251;59620;-66
2023/11/18 07:42:18;;;;;;;33.60;16.90;;;;;;;7.48;53.97;100488.45;108218;1251;71741;-67
2023/11/18 07:44:47;;;;;;;29.50;16.10;;;;;;;7.62;53.54;100487.33;108227;1252;68396;-66
2023/11/18 07:47:16;;;;;;;47.70;18.10;;;;;;;7.58;53.09;100491.95;108187;1252;72623;-66
2023/11/18 07:49:45;;;;;;;33.00;14.70;;;;;;;7.60;52.99;100490.52;108210;1252;60873;-67
2023/11/18 07:52:12;;;;;;;27.70;14.80;;;;;;;7.57;52.86;100492.84;108184;1251;59965;-66
2023/11/18 07:54:40;;;;;;;27.40;14.40;;;;;;;7.59;52.67;100490.52;108200;1251;73044;-65
2023/11/18 07:57:10;;;;;;;33.70;17.00;;;;;;;7.64;52.79;100487.30;108206;1251;69040;-66
2023/11/18 07:59:38;;;;;;;46.00;21.30;;;;;;;7.80;53.09;100488.38;108270;1252;71460;-67
2023/11/18 08:02:09;;;;;;;43.10;20.00;;;;;;;7.94;53.05;100488.26;108098;1253;59989;-66
2023/11/18 08:04:37;;;;;;;32.20;15.30;;;;;;;7.98;53.03;100498.48;108152;1253;59388;-67
2023/11/18 08:07:05;;;;;;;29.00;15.00;;;;;;;8.06;52.44;100493.77;108188;1252;72297;-66
2023/11/18 08:09:33;;;;;;;25.60;12.70;;;;;;;8.04;51.67;100498.56;108214;1253;70466;-67
2023/11/18 08:12:00;;;;;;;22.50;12.40;;;;;;;8.01;51.10;100501.06;108206;1253;72555;-66
2023/11/18 08:14:28;;;;;;;30.20;14.90;;;;;;;8.09;50.71;100500.38;108113;1253;60182;-67
2023/11/18 08:16:56;;;;;;;25.40;14.10;;;;;;;8.21;51.17;100495.93;108154;1253;60541;-66
2023/11/18 08:19:24;;;;;;;31.50;15.40;;;;;;;8.31;51.38;100496.59;108133;1253;71828;-66
2023/11/18 08:21:51;;;;;;;25.70;13.80;;;;;;;8.47;51.01;100498.19;108169;1252;69942;-67
2023/11/18 08:24:19;;;;;;;28.80;15.40;;;;;;;8.38;51.18;100499.95;108226;1253;71361;-67
2023/11/18 08:26:46;;;;;;;25.30;16.30;;;;;;;8.41;50.59;100500.77;108192;1252;60915;-66
2023/11/18 08:29:14;;;;;;;55.90;21.30;;;;;;;8.46;50.64;100502.58;108190;1251;59501;-66
2023/11/18 08:31:42;;;;;;;39.00;16.00;;;;;;;8.38;50.81;100506.60;108192;1251;71861;-67
2023/11/18 08:34:10;;;;;;;25.30;12.60;;;;;;;8.41;50.58;100516.67;108209;1256;70292;-66
2023/11/18 08:36:37;;;;;;;32.30;16.10;;;;;;;8.35;50.31;100513.13;108175;1253;72697;-67
2023/11/18 08:39:05;;;;;;;31.60;16.50;;;;;;;8.33;50.26;100521.03;108236;1252;60798;-67
2023/11/18 08:41:35;;;;;;;24.50;13.20;;;;;;;8.27;50.29;100520.80;108247;1253;59616;-67
2023/11/18 08:44:03;;;;;;;24.90;13.40;;;;;;;8.27;50.35;100525.54;108222;1251;73034;-66
2023/11/18 08:46:49;;;;;;;25.60;13.40;;;;;;;8.16;50.17;100528.73;108233;1253;69035;-67
2023/11/18 08:49:21;;;;;;;22.30;11.80;;;;;;;8.24;50.05;100529.96;108250;1252;71433;-67
2023/11/18 08:51:55;;;;;;;20.70;11.60;;;;;;;8.39;49.89;100528.45;108159;1253;59628;-66
2023/11/18 08:54:25;;;;;;;23.60;11.80;;;;;;;8.56;49.74;100531.23;108073;1253;59519;-67
2023/11/18 08:56:54;;;;;;;27.00;13.70;;;;;;;8.75;50.07;100528.54;108219;1251;71792;-67
2023/11/18 08:59:24;;;;;;;21.10;12.40;;;;;;;8.92;49.44;100526.57;108176;1253;70315;-66
2023/11/18 09:01:55;;;;;;;19.70;11.60;;;;;;;8.96;48.68;100524.52;108248;1250;71412;-66
2023/11/18 09:04:23;;;;;;;19.90;12.10;;;;;;;9.12;48.51;100521.86;108305;1256;60951;-66
2023/11/18 09:06:53;;;;;;;22.00;12.80;;;;;;;9.28;48.62;100520.77;108272;1250;59498;-66
2023/11/18 09:09:27;;;;;;;19.60;12.20;;;;;;;9.52;48.59;100517.17;108351;1251;71789;-66
2023/11/18 09:11:56;;;;;;;15.90;9.70;;;;;;;9.63;47.59;100518.09;108342;1250;69955;-67
2023/11/18 09:14:24;;;;;;;14.20;9.20;;;;;;;9.53;47.25;100518.19;108274;1254;71019;-67
2023/11/18 09:16:55;;;;;;;13.30;9.30;;;;;;;9.51;47.57;100517.90;108273;1250;59687;-67
2023/11/18 09:19:22;;;;;;;17.70;10.10;;;;;;;9.67;47.03;100518.70;108296;1256;60032;-67
2023/11/18 09:21:51;;;;;;;16.00;9.80;;;;;;;9.80;46.76;100515.71;108273;1250;72078;-67
2023/11/18 09:24:19;;;;;;;13.80;9.00;;;;;;;9.90;46.03;100520.52;108289;1256;70566;-67
2023/11/18 09:26:50;;;;;;;17.80;8.70;;;;;;;9.78;45.59;100525.40;108229;1250;72702;-66
2023/11/18 09:29:23;;;;;;;14.20;8.70;;;;;;;9.73;45.75;100523.79;108231;1250;61393;-67
2023/11/18 09:31:52;;;;;;;23.10;9.90;;;;;;;9.78;45.82;100518.04;108184;1250;60710;-67
2023/11/18 09:34:27;;;;;;;16.00;10.10;;;;;;;9.80;45.96;100508.17;108237;1251;71748;-67
2023/11/18 09:36:55;;;;;;;18.70;8.20;;;;;;;9.92;45.93;100504.85;108248;1250;68851;-67
2023/11/18 09:39:37;;;;;;;13.50;8.60;;;;;;;9.90;45.62;100506.14;108238;1250;72626;-67
2023/11/18 09:42:08;;;;;;;17.80;9.60;;;;;;;9.75;45.78;100500.95;108203;1256;59589;-67
2023/11/18 09:44:37;;;;;;;18.70;9.30;;;;;;;9.87;45.64;100497.10;108250;1250;59368;-66
2023/11/18 09:47:09;;;;;;;15.50;8.10;;;;;;;9.84;45.72;100494.72;108247;1250;70821;-67
2023/11/18 09:49:44;;;;;;;11.20;7.40;;;;;;;9.95;45.57;100494.23;108267;1256;68802;-67
2023/11/18 09:52:17;;;;;;;11.40;8.20;;;;;;;10.00;45.39;100489.19;108260;1250;72722;-67
2023/11/18 09:54:52;;;;;;;9.70;6.60;;;;;;;9.73;45.43;100483.11;108377;1251;60940;-67
2023/11/18 09:57:26;;;;;;;10.30;6.70;;;;;;;9.61;45.63;100487.84;108320;1250;60492;-67
2023/11/18 10:02:55;;;;;;;11.40;6.80;;;;;;;9.33;45.86;100479.65;108165;1252;70081;-67
2023/11/18 10:05:26;;;;;;;22.90;13.40;;;;;;;9.12;46.05;100477.74;108168;1256;71276;-67
2023/11/18 10:07:57;;;;;;;18.80;11.40;;;;;;;9.12;46.22;100467.39;108133;1251;60274;-69
2023/11/18 10:10:26;;;;;;;16.50;10.20;;;;;;;9.07;46.40;100467.52;108156;1251;60298;-66
2023/11/18 10:12:57;;;;;;;13.20;7.60;;;;;;;9.04;46.33;100471.27;108188;1253;73930;-68
2023/11/18 10:15:26;;;;;;;11.20;7.80;;;;;;;9.06;46.01;100472.44;108205;1252;69183;-67
2023/11/18 10:17:59;;;;;;;11.60;8.30;;;;;;;8.95;46.24;100469.73;108188;1253;72736;-67
2023/11/18 10:20:46;;;;;;;17.30;9.90;;;;;;;8.88;46.92;100471.33;108230;1251;60897;-67
2023/11/18 10:23:27;;;;;;;12.80;8.60;;;;;;;8.94;47.17;100470.45;108197;1253;60276;-67
2023/11/18 10:25:56;;;;;;;16.30;9.50;;;;;;;9.02;47.33;100467.63;108117;1252;73918;-67
2023/11/18 10:28:27;;;;;;;15.30;8.70;;;;;;;9.27;46.52;100474.55;108220;1251;69167;-67
2023/11/18 10:30:57;;;;;;;11.90;7.80;;;;;;;9.39;46.09;100472.29;108186;1253;72663;-67
2023/11/18 10:33:35;;;;;;;12.20;7.70;;;;;;;9.48;46.44;100470.13;108113;1253;60404;-67
2023/11/18 10:36:05;;;;;;;14.50;8.70;;;;;;;9.30;46.53;100470.25;108140;1251;59855;-67
2023/11/18 10:38:43;;;;;;;15.10;9.30;;;;;;;9.22;46.63;100472.91;108164;1251;73875;-67
2023/11/18 10:41:12;;;;;;;11.60;8.10;;;;;;;9.05;46.52;100473.00;108214;1253;69342;-67
2023/11/18 10:43:41;;;;;;;12.20;7.90;;;;;;;8.95;46.57;100474.99;108146;1254;73248;-67
2023/11/18 10:46:13;;;;;;;14.80;9.10;;;;;;;8.93;46.56;100474.87;108131;1253;60428;-67
2023/11/18 10:48:47;;;;;;;17.30;11.40;;;;;;;8.91;46.92;100472.47;108127;1251;60300;-67
2023/11/18 10:51:16;;;;;;;15.00;10.50;;;;;;;8.99;46.74;100474.38;108056;1253;73930;-67
2023/11/18 10:53:53;;;;;;;25.40;10.90;;;;;;;8.96;46.39;100477.23;108148;1251;69910;-67
2023/11/18 10:56:26;;;;;;;20.70;9.20;;;;;;;8.89;45.65;100479.16;108160;1252;70576;-67
2023/11/18 10:58:58;;;;;;;13.90;9.50;;;;;;;8.83;45.78;100481.77;108170;1254;61329;-67
2023/11/18 11:01:31;;;;;;;11.70;7.90;;;;;;;8.85;45.83;100485.39;108213;1250;60308;-67
2023/11/18 11:04:04;;;;;;;15.70;9.50;;;;;;;8.95;45.79;100477.46;108106;1255;72545;-67
2023/11/18 11:06:33;;;;;;;20.80;9.60;;;;;;;8.87;45.86;100480.27;108271;1250;70559;-66
2023/11/18 11:09:00;;;;;;;17.90;9.60;;;;;;;8.82;46.31;100483.39;108271;1251;72617;-67
2023/11/18 11:11:37;;;;;;;20.60;11.30;;;;;;;8.89;46.16;100476.54;108277;1250;60848;-67
2023/11/18 11:14:05;;;;;;;23.10;11.90;;;;;;;8.81;46.11;100474.11;108175;1250;60351;-66
2023/11/18 11:16:37;;;;;;;25.00;12.60;;;;;;;8.75;45.97;100479.16;108279;1250;73898;-69
2023/11/18 11:19:08;;;;;;;19.20;11.40;;;;;;;8.67;46.15;100481.11;108236;1255;69956;-67
2023/11/18 11:21:41;;;;;;;;;;;;;;;8.65;46.09;100485.54;108059;1250;72992;-66
2023/11/18 11:24:12;;;;;;;15.00;8.10;;;;;;;8.70;46.22;100491.02;108176;1250;61012;-67
2023/11/18 11:27:04;;;;;;;17.00;9.40;;;;;;;8.85;45.65;100484.69;108278;1251;60398;-66